sensor_id;sensor_type;location;lat;lon;timestamp;P1;durP1;ratioP1;P2;durP2;ratioP2
24451;SDS011;13350;50.984;5.822;2023-03-31T00:01:26;4.55;;;1.58;;
24451;SDS011;13350;50.984;5.822;2023-03-31T00:03:56;4.90;;;1.17;;
24451;SDS011;13350;50.984;5.822;2023-03-31T00:06:29;4.22;;;1.20;;
24451;SDS011;13350;50.984;5.822;2023-03-31T00:09:02;4.15;;;1.30;;
24451;SDS011;13350;50.984;5.822;2023-03-31T00:11:30;6.47;;;1.60;;
24451;SDS011;13350;50.984;5.822;2023-03-31T00:13:57;2.60;;;1.30;;
24451;SDS011;13350;50.984;5.822;2023-03-31T00:16:24;5.25;;;1.33;;
24451;SDS011;13350;50.984;5.822;2023-03-31T00:18:51;3.53;;;1.20;;
24451;SDS011;13350;50.984;5.822;2023-03-31T00:21:21;4.90;;;1.35;;
24451;SDS011;13350;50.984;5.822;2023-03-31T00:23:58;6.60;;;1.40;;
24451;SDS011;13350;50.984;5.822;2023-03-31T00:26:27;6.55;;;1.35;;
24451;SDS011;13350;50.984;5.822;2023-03-31T00:28:55;4.90;;;1.30;;
24451;SDS011;13350;50.984;5.822;2023-03-31T00:31:23;5.82;;;1.70;;
24451;SDS011;13350;50.984;5.822;2023-03-31T00:33:52;6.13;;;1.45;;
24451;SDS011;13350;50.984;5.822;2023-03-31T00:36:21;5.28;;;1.52;;
24451;SDS011;13350;50.984;5.822;2023-03-31T00:38:52;1.25;;;0.85;;
24451;SDS011;13350;50.984;5.822;2023-03-31T00:41:20;5.82;;;0.93;;
24451;SDS011;13350;50.984;5.822;2023-03-31T00:44:00;6.18;;;1.42;;
24451;SDS011;13350;50.984;5.822;2023-03-31T00:46:32;8.40;;;2.30;;
24451;SDS011;13350;50.984;5.822;2023-03-31T00:49:03;6.00;;;1.50;;
24451;SDS011;13350;50.984;5.822;2023-03-31T00:51:32;7.63;;;1.73;;
24451;SDS011;13350;50.984;5.822;2023-03-31T00:54:00;6.45;;;1.77;;
24451;SDS011;13350;50.984;5.822;2023-03-31T00:56:33;4.13;;;1.52;;
24451;SDS011;13350;50.984;5.822;2023-03-31T00:59:06;7.30;;;1.40;;
24451;SDS011;13350;50.984;5.822;2023-03-31T01:01:36;8.75;;;2.42;;
24451;SDS011;13350;50.984;5.822;2023-03-31T01:04:09;6.20;;;1.50;;
24451;SDS011;13350;50.984;5.822;2023-03-31T01:06:43;5.65;;;1.70;;
24451;SDS011;13350;50.984;5.822;2023-03-31T01:09:21;8.40;;;1.88;;
24451;SDS011;13350;50.984;5.822;2023-03-31T01:11:49;9.50;;;1.77;;
24451;SDS011;13350;50.984;5.822;2023-03-31T01:14:17;6.85;;;1.70;;
24451;SDS011;13350;50.984;5.822;2023-03-31T01:16:44;7.90;;;2.22;;
24451;SDS011;13350;50.984;5.822;2023-03-31T01:19:13;7.00;;;1.55;;
24451;SDS011;13350;50.984;5.822;2023-03-31T01:22:06;8.23;;;2.08;;
24451;SDS011;13350;50.984;5.822;2023-03-31T01:25:12;3.75;;;0.80;;
24451;SDS011;13350;50.984;5.822;2023-03-31T01:28:07;6.90;;;1.42;;
24451;SDS011;13350;50.984;5.822;2023-03-31T01:30:51;7.00;;;1.88;;
24451;SDS011;13350;50.984;5.822;2023-03-31T01:33:48;6.75;;;1.88;;
24451;SDS011;13350;50.984;5.822;2023-03-31T01:36:50;8.63;;;2.47;;
24451;SDS011;13350;50.984;5.822;2023-03-31T01:42:27;5.15;;;1.27;;
24451;SDS011;13350;50.984;5.822;2023-03-31T01:45:01;2.35;;;1.08;;
24451;SDS011;13350;50.984;5.822;2023-03-31T01:47:39;7.93;;;1.85;;
24451;SDS011;13350;50.984;5.822;2023-03-31T01:50:13;3.17;;;1.13;;
24451;SDS011;13350;50.984;5.822;2023-03-31T01:52:49;5.65;;;1.30;;
24451;SDS011;13350;50.984;5.822;2023-03-31T01:55:25;10.75;;;2.30;;
24451;SDS011;13350;50.984;5.822;2023-03-31T01:58:01;7.35;;;1.75;;
24451;SDS011;13350;50.984;5.822;2023-03-31T02:00:35;7.35;;;1.27;;
24451;SDS011;13350;50.984;5.822;2023-03-31T02:03:08;4.95;;;1.63;;
24451;SDS011;13350;50.984;5.822;2023-03-31T02:05:43;4.67;;;1.53;;
24451;SDS011;13350;50.984;5.822;2023-03-31T02:08:14;8.05;;;1.50;;
24451;SDS011;13350;50.984;5.822;2023-03-31T02:10:45;7.50;;;1.20;;
24451;SDS011;13350;50.984;5.822;2023-03-31T02:13:15;6.35;;;1.05;;
24451;SDS011;13350;50.984;5.822;2023-03-31T02:15:45;7.85;;;1.70;;
24451;SDS011;13350;50.984;5.822;2023-03-31T02:18:17;8.25;;;1.40;;
24451;SDS011;13350;50.984;5.822;2023-03-31T02:20:50;5.65;;;1.70;;
24451;SDS011;13350;50.984;5.822;2023-03-31T02:23:22;8.23;;;1.83;;
24451;SDS011;13350;50.984;5.822;2023-03-31T02:25:56;4.78;;;1.20;;
24451;SDS011;13350;50.984;5.822;2023-03-31T02:28:28;4.78;;;1.30;;
24451;SDS011;13350;50.984;5.822;2023-03-31T02:30:59;5.65;;;1.48;;
24451;SDS011;13350;50.984;5.822;2023-03-31T02:33:32;6.50;;;1.23;;
24451;SDS011;13350;50.984;5.822;2023-03-31T02:36:00;5.18;;;1.10;;
24451;SDS011;13350;50.984;5.822;2023-03-31T02:38:27;6.75;;;1.65;;
24451;SDS011;13350;50.984;5.822;2023-03-31T02:41:00;5.47;;;1.00;;
24451;SDS011;13350;50.984;5.822;2023-03-31T02:43:27;5.88;;;1.30;;
24451;SDS011;13350;50.984;5.822;2023-03-31T02:45:55;5.43;;;1.48;;
24451;SDS011;13350;50.984;5.822;2023-03-31T02:48:22;9.07;;;1.27;;
24451;SDS011;13350;50.984;5.822;2023-03-31T02:54:08;5.70;;;1.42;;
24451;SDS011;13350;50.984;5.822;2023-03-31T02:56:50;5.88;;;1.15;;
24451;SDS011;13350;50.984;5.822;2023-03-31T03:02:07;5.68;;;1.15;;
24451;SDS011;13350;50.984;5.822;2023-03-31T03:07:41;6.50;;;1.52;;
24451;SDS011;13350;50.984;5.822;2023-03-31T03:10:14;3.23;;;1.00;;
24451;SDS011;13350;50.984;5.822;2023-03-31T03:12:50;3.53;;;1.30;;
24451;SDS011;13350;50.984;5.822;2023-03-31T03:15:24;5.45;;;1.40;;
24451;SDS011;13350;50.984;5.822;2023-03-31T03:17:56;5.00;;;1.17;;
24451;SDS011;13350;50.984;5.822;2023-03-31T03:20:24;4.53;;;1.10;;
24451;SDS011;13350;50.984;5.822;2023-03-31T03:22:51;3.63;;;1.33;;
24451;SDS011;13350;50.984;5.822;2023-03-31T03:25:19;4.07;;;1.30;;
24451;SDS011;13350;50.984;5.822;2023-03-31T03:27:46;3.92;;;1.10;;
24451;SDS011;13350;50.984;5.822;2023-03-31T03:30:17;5.75;;;1.00;;
24451;SDS011;13350;50.984;5.822;2023-03-31T03:32:44;6.40;;;1.00;;
24451;SDS011;13350;50.984;5.822;2023-03-31T03:35:11;3.17;;;0.90;;
24451;SDS011;13350;50.984;5.822;2023-03-31T03:37:39;1.52;;;0.70;;
24451;SDS011;13350;50.984;5.822;2023-03-31T03:40:07;3.45;;;0.75;;
24451;SDS011;13350;50.984;5.822;2023-03-31T03:42:35;4.35;;;1.15;;
24451;SDS011;13350;50.984;5.822;2023-03-31T03:45:04;6.90;;;0.80;;
24451;SDS011;13350;50.984;5.822;2023-03-31T03:47:32;2.42;;;0.73;;
24451;SDS011;13350;50.984;5.822;2023-03-31T03:50:01;2.70;;;0.80;;
24451;SDS011;13350;50.984;5.822;2023-03-31T03:52:29;4.13;;;0.75;;
24451;SDS011;13350;50.984;5.822;2023-03-31T03:54:56;2.88;;;0.90;;
24451;SDS011;13350;50.984;5.822;2023-03-31T03:57:24;1.85;;;0.98;;
24451;SDS011;13350;50.984;5.822;2023-03-31T03:59:51;1.77;;;0.85;;
24451;SDS011;13350;50.984;5.822;2023-03-31T04:02:19;3.63;;;0.80;;
24451;SDS011;13350;50.984;5.822;2023-03-31T04:04:47;4.28;;;0.90;;
24451;SDS011;13350;50.984;5.822;2023-03-31T04:07:14;3.20;;;0.77;;
24451;SDS011;13350;50.984;5.822;2023-03-31T04:09:41;2.10;;;0.52;;
24451;SDS011;13350;50.984;5.822;2023-03-31T04:12:08;2.17;;;0.77;;
24451;SDS011;13350;50.984;5.822;2023-03-31T04:14:36;4.07;;;0.80;;
24451;SDS011;13350;50.984;5.822;2023-03-31T04:17:03;1.50;;;0.75;;
24451;SDS011;13350;50.984;5.822;2023-03-31T04:19:32;2.72;;;0.60;;
24451;SDS011;13350;50.984;5.822;2023-03-31T04:21:59;1.90;;;0.70;;
24451;SDS011;13350;50.984;5.822;2023-03-31T04:24:27;1.67;;;0.70;;
24451;SDS011;13350;50.984;5.822;2023-03-31T04:26:57;3.13;;;0.88;;
24451;SDS011;13350;50.984;5.822;2023-03-31T04:29:27;5.22;;;0.65;;
24451;SDS011;13350;50.984;5.822;2023-03-31T04:31:57;1.17;;;0.80;;
24451;SDS011;13350;50.984;5.822;2023-03-31T04:34:25;3.67;;;0.90;;
24451;SDS011;13350;50.984;5.822;2023-03-31T04:37:00;3.15;;;1.17;;
24451;SDS011;13350;50.984;5.822;2023-03-31T04:39:28;1.08;;;0.43;;
24451;SDS011;13350;50.984;5.822;2023-03-31T04:41:56;3.40;;;1.25;;
24451;SDS011;13350;50.984;5.822;2023-03-31T04:44:24;2.72;;;1.00;;
24451;SDS011;13350;50.984;5.822;2023-03-31T04:46:52;3.20;;;1.02;;
24451;SDS011;13350;50.984;5.822;2023-03-31T04:49:19;1.30;;;0.77;;
24451;SDS011;13350;50.984;5.822;2023-03-31T04:51:47;1.55;;;0.77;;
24451;SDS011;13350;50.984;5.822;2023-03-31T04:54:16;3.90;;;0.70;;
24451;SDS011;13350;50.984;5.822;2023-03-31T04:56:43;1.83;;;0.90;;
24451;SDS011;13350;50.984;5.822;2023-03-31T04:59:11;3.10;;;0.82;;
24451;SDS011;13350;50.984;5.822;2023-03-31T05:01:39;2.58;;;0.65;;
24451;SDS011;13350;50.984;5.822;2023-03-31T05:04:09;3.30;;;1.08;;
24451;SDS011;13350;50.984;5.822;2023-03-31T05:06:36;3.78;;;0.73;;
24451;SDS011;13350;50.984;5.822;2023-03-31T05:09:04;2.60;;;0.80;;
24451;SDS011;13350;50.984;5.822;2023-03-31T05:11:32;1.90;;;0.80;;
24451;SDS011;13350;50.984;5.822;2023-03-31T05:14:00;3.25;;;1.13;;
24451;SDS011;13350;50.984;5.822;2023-03-31T05:16:28;1.73;;;0.80;;
24451;SDS011;13350;50.984;5.822;2023-03-31T05:18:55;3.63;;;0.80;;
24451;SDS011;13350;50.984;5.822;2023-03-31T05:21:22;2.25;;;0.98;;
24451;SDS011;13350;50.984;5.822;2023-03-31T05:23:51;1.50;;;0.82;;
24451;SDS011;13350;50.984;5.822;2023-03-31T05:26:19;1.38;;;0.50;;
24451;SDS011;13350;50.984;5.822;2023-03-31T05:28:48;1.33;;;0.45;;
24451;SDS011;13350;50.984;5.822;2023-03-31T05:31:18;2.10;;;0.65;;
24451;SDS011;13350;50.984;5.822;2023-03-31T05:33:46;0.75;;;0.40;;
24451;SDS011;13350;50.984;5.822;2023-03-31T05:36:14;2.22;;;0.70;;
24451;SDS011;13350;50.984;5.822;2023-03-31T05:38:42;0.68;;;0.30;;
24451;SDS011;13350;50.984;5.822;2023-03-31T05:41:10;3.13;;;0.50;;
24451;SDS011;13350;50.984;5.822;2023-03-31T05:43:37;2.28;;;0.73;;
24451;SDS011;13350;50.984;5.822;2023-03-31T05:46:06;2.05;;;0.80;;
24451;SDS011;13350;50.984;5.822;2023-03-31T05:48:33;1.58;;;0.70;;
24451;SDS011;13350;50.984;5.822;2023-03-31T05:51:02;1.25;;;0.60;;
24451;SDS011;13350;50.984;5.822;2023-03-31T05:53:30;1.55;;;0.80;;
24451;SDS011;13350;50.984;5.822;2023-03-31T05:55:58;3.65;;;0.90;;
24451;SDS011;13350;50.984;5.822;2023-03-31T05:58:27;2.88;;;0.82;;
24451;SDS011;13350;50.984;5.822;2023-03-31T06:01:04;2.47;;;0.70;;
24451;SDS011;13350;50.984;5.822;2023-03-31T06:03:34;1.33;;;0.75;;
24451;SDS011;13350;50.984;5.822;2023-03-31T06:06:03;2.92;;;0.68;;
24451;SDS011;13350;50.984;5.822;2023-03-31T06:08:32;2.95;;;0.82;;
24451;SDS011;13350;50.984;5.822;2023-03-31T06:11:01;0.43;;;0.40;;
24451;SDS011;13350;50.984;5.822;2023-03-31T06:13:30;4.30;;;0.57;;
24451;SDS011;13350;50.984;5.822;2023-03-31T06:15:58;2.60;;;1.00;;
24451;SDS011;13350;50.984;5.822;2023-03-31T06:18:28;1.63;;;0.60;;
24451;SDS011;13350;50.984;5.822;2023-03-31T06:20:57;2.58;;;0.90;;
24451;SDS011;13350;50.984;5.822;2023-03-31T06:23:25;2.08;;;0.70;;
24451;SDS011;13350;50.984;5.822;2023-03-31T06:25:52;2.67;;;1.30;;
24451;SDS011;13350;50.984;5.822;2023-03-31T06:28:20;2.00;;;0.70;;
24451;SDS011;13350;50.984;5.822;2023-03-31T06:30:47;2.28;;;0.70;;
24451;SDS011;13350;50.984;5.822;2023-03-31T06:33:15;3.40;;;0.88;;
24451;SDS011;13350;50.984;5.822;2023-03-31T06:35:43;3.97;;;1.13;;
24451;SDS011;13350;50.984;5.822;2023-03-31T06:38:11;4.68;;;1.15;;
24451;SDS011;13350;50.984;5.822;2023-03-31T06:40:38;1.40;;;0.85;;
24451;SDS011;13350;50.984;5.822;2023-03-31T06:43:05;2.67;;;0.80;;
24451;SDS011;13350;50.984;5.822;2023-03-31T06:45:32;3.15;;;0.93;;
24451;SDS011;13350;50.984;5.822;2023-03-31T06:48:00;6.13;;;1.45;;
24451;SDS011;13350;50.984;5.822;2023-03-31T06:50:27;2.42;;;0.88;;
24451;SDS011;13350;50.984;5.822;2023-03-31T06:52:55;5.68;;;0.93;;
24451;SDS011;13350;50.984;5.822;2023-03-31T06:55:24;2.10;;;1.17;;
24451;SDS011;13350;50.984;5.822;2023-03-31T06:57:51;1.73;;;0.80;;
24451;SDS011;13350;50.984;5.822;2023-03-31T07:00:18;3.75;;;0.70;;
24451;SDS011;13350;50.984;5.822;2023-03-31T07:02:46;5.10;;;1.00;;
24451;SDS011;13350;50.984;5.822;2023-03-31T07:05:13;3.45;;;1.23;;
24451;SDS011;13350;50.984;5.822;2023-03-31T07:07:41;6.53;;;1.20;;
24451;SDS011;13350;50.984;5.822;2023-03-31T07:10:09;2.92;;;1.00;;
24451;SDS011;13350;50.984;5.822;2023-03-31T07:12:37;3.25;;;1.00;;
24451;SDS011;13350;50.984;5.822;2023-03-31T07:15:05;7.45;;;1.27;;
24451;SDS011;13350;50.984;5.822;2023-03-31T07:17:33;4.55;;;1.10;;
24451;SDS011;13350;50.984;5.822;2023-03-31T07:20:01;6.25;;;1.30;;
24451;SDS011;13350;50.984;5.822;2023-03-31T07:22:31;6.47;;;1.27;;
24451;SDS011;13350;50.984;5.822;2023-03-31T07:24:58;1.90;;;0.90;;
24451;SDS011;13350;50.984;5.822;2023-03-31T07:27:27;6.18;;;1.20;;
24451;SDS011;13350;50.984;5.822;2023-03-31T07:29:54;2.10;;;1.00;;
24451;SDS011;13350;50.984;5.822;2023-03-31T07:32:22;3.80;;;0.70;;
24451;SDS011;13350;50.984;5.822;2023-03-31T07:34:49;3.45;;;0.95;;
24451;SDS011;13350;50.984;5.822;2023-03-31T07:37:16;3.47;;;1.15;;
24451;SDS011;13350;50.984;5.822;2023-03-31T07:39:44;5.50;;;1.38;;
24451;SDS011;13350;50.984;5.822;2023-03-31T07:42:11;4.25;;;1.08;;
24451;SDS011;13350;50.984;5.822;2023-03-31T07:44:40;4.85;;;1.33;;
24451;SDS011;13350;50.984;5.822;2023-03-31T07:47:07;3.20;;;1.13;;
24451;SDS011;13350;50.984;5.822;2023-03-31T07:49:35;4.97;;;1.20;;
24451;SDS011;13350;50.984;5.822;2023-03-31T07:52:02;4.88;;;1.27;;
24451;SDS011;13350;50.984;5.822;2023-03-31T07:54:29;4.50;;;1.23;;
24451;SDS011;13350;50.984;5.822;2023-03-31T07:56:57;3.08;;;1.45;;
24451;SDS011;13350;50.984;5.822;2023-03-31T07:59:26;5.90;;;1.33;;
24451;SDS011;13350;50.984;5.822;2023-03-31T08:01:55;3.03;;;1.13;;
24451;SDS011;13350;50.984;5.822;2023-03-31T08:04:23;4.30;;;1.38;;
24451;SDS011;13350;50.984;5.822;2023-03-31T08:06:50;10.25;;;2.38;;
24451;SDS011;13350;50.984;5.822;2023-03-31T08:09:17;8.80;;;1.60;;
24451;SDS011;13350;50.984;5.822;2023-03-31T08:11:46;3.38;;;1.35;;
24451;SDS011;13350;50.984;5.822;2023-03-31T08:14:13;5.13;;;1.52;;
24451;SDS011;13350;50.984;5.822;2023-03-31T08:16:41;7.60;;;1.70;;
24451;SDS011;13350;50.984;5.822;2023-03-31T08:19:10;6.68;;;1.65;;
24451;SDS011;13350;50.984;5.822;2023-03-31T08:21:37;2.60;;;0.95;;
24451;SDS011;13350;50.984;5.822;2023-03-31T08:24:04;4.90;;;1.40;;
24451;SDS011;13350;50.984;5.822;2023-03-31T08:26:32;5.78;;;1.50;;
24451;SDS011;13350;50.984;5.822;2023-03-31T08:28:59;6.32;;;1.95;;
24451;SDS011;13350;50.984;5.822;2023-03-31T08:31:28;7.30;;;1.90;;
24451;SDS011;13350;50.984;5.822;2023-03-31T08:33:55;2.13;;;0.95;;
24451;SDS011;13350;50.984;5.822;2023-03-31T08:36:24;4.97;;;1.70;;
24451;SDS011;13350;50.984;5.822;2023-03-31T08:38:52;7.70;;;1.80;;
24451;SDS011;13350;50.984;5.822;2023-03-31T08:41:23;5.57;;;1.15;;
24451;SDS011;13350;50.984;5.822;2023-03-31T08:43:59;5.72;;;2.00;;
24451;SDS011;13350;50.984;5.822;2023-03-31T08:46:30;7.75;;;1.70;;
24451;SDS011;13350;50.984;5.822;2023-03-31T08:48:59;6.55;;;2.10;;
24451;SDS011;13350;50.984;5.822;2023-03-31T08:51:29;10.63;;;2.03;;
24451;SDS011;13350;50.984;5.822;2023-03-31T08:54:02;6.20;;;2.43;;
24451;SDS011;13350;50.984;5.822;2023-03-31T08:56:33;6.13;;;1.60;;
24451;SDS011;13350;50.984;5.822;2023-03-31T08:59:03;4.25;;;1.63;;
24451;SDS011;13350;50.984;5.822;2023-03-31T09:01:33;7.47;;;1.90;;
24451;SDS011;13350;50.984;5.822;2023-03-31T09:04:07;5.47;;;1.38;;
24451;SDS011;13350;50.984;5.822;2023-03-31T09:06:48;7.35;;;2.25;;
24451;SDS011;13350;50.984;5.822;2023-03-31T09:09:25;6.05;;;1.83;;
24451;SDS011;13350;50.984;5.822;2023-03-31T09:12:02;4.88;;;1.45;;
24451;SDS011;13350;50.984;5.822;2023-03-31T09:14:35;7.05;;;1.60;;
24451;SDS011;13350;50.984;5.822;2023-03-31T09:17:06;5.68;;;1.40;;
24451;SDS011;13350;50.984;5.822;2023-03-31T09:19:42;6.03;;;1.95;;
24451;SDS011;13350;50.984;5.822;2023-03-31T09:22:16;5.25;;;1.30;;
24451;SDS011;13350;50.984;5.822;2023-03-31T09:24:49;4.78;;;1.38;;
24451;SDS011;13350;50.984;5.822;2023-03-31T09:27:21;6.82;;;1.80;;
24451;SDS011;13350;50.984;5.822;2023-03-31T09:29:54;6.32;;;1.73;;
24451;SDS011;13350;50.984;5.822;2023-03-31T09:32:25;9.27;;;1.70;;
24451;SDS011;13350;50.984;5.822;2023-03-31T09:34:55;5.22;;;1.90;;
24451;SDS011;13350;50.984;5.822;2023-03-31T09:37:29;6.97;;;1.60;;
24451;SDS011;13350;50.984;5.822;2023-03-31T09:39:58;5.72;;;1.38;;
24451;SDS011;13350;50.984;5.822;2023-03-31T09:42:31;5.45;;;1.65;;
24451;SDS011;13350;50.984;5.822;2023-03-31T09:44:59;5.93;;;1.60;;
24451;SDS011;13350;50.984;5.822;2023-03-31T09:47:28;5.28;;;1.20;;
24451;SDS011;13350;50.984;5.822;2023-03-31T09:49:58;5.97;;;1.40;;
24451;SDS011;13350;50.984;5.822;2023-03-31T09:52:26;8.88;;;2.08;;
24451;SDS011;13350;50.984;5.822;2023-03-31T09:54:58;7.72;;;1.65;;
24451;SDS011;13350;50.984;5.822;2023-03-31T09:57:27;3.65;;;1.25;;
24451;SDS011;13350;50.984;5.822;2023-03-31T10:00:00;6.05;;;1.38;;
24451;SDS011;13350;50.984;5.822;2023-03-31T10:02:38;7.25;;;1.60;;
24451;SDS011;13350;50.984;5.822;2023-03-31T10:05:17;3.13;;;0.98;;
24451;SDS011;13350;50.984;5.822;2023-03-31T10:07:52;6.68;;;1.27;;
24451;SDS011;13350;50.984;5.822;2023-03-31T10:10:42;5.75;;;1.20;;
24451;SDS011;13350;50.984;5.822;2023-03-31T10:13:13;4.53;;;1.20;;
24451;SDS011;13350;50.984;5.822;2023-03-31T10:15:42;3.50;;;0.90;;
24451;SDS011;13350;50.984;5.822;2023-03-31T10:18:12;5.40;;;1.38;;
24451;SDS011;13350;50.984;5.822;2023-03-31T10:20:42;7.10;;;0.82;;
24451;SDS011;13350;50.984;5.822;2023-03-31T10:23:16;4.32;;;1.38;;
24451;SDS011;13350;50.984;5.822;2023-03-31T10:25:48;2.40;;;1.20;;
24451;SDS011;13350;50.984;5.822;2023-03-31T10:28:16;3.65;;;0.98;;
24451;SDS011;13350;50.984;5.822;2023-03-31T10:30:46;2.00;;;0.63;;
24451;SDS011;13350;50.984;5.822;2023-03-31T10:33:16;2.20;;;0.85;;
24451;SDS011;13350;50.984;5.822;2023-03-31T10:35:46;4.85;;;1.20;;
24451;SDS011;13350;50.984;5.822;2023-03-31T10:38:18;2.03;;;1.27;;
24451;SDS011;13350;50.984;5.822;2023-03-31T10:40:52;5.72;;;1.35;;
24451;SDS011;13350;50.984;5.822;2023-03-31T10:43:24;4.72;;;1.55;;
24451;SDS011;13350;50.984;5.822;2023-03-31T10:45:55;4.43;;;1.58;;
24451;SDS011;13350;50.984;5.822;2023-03-31T10:48:24;4.57;;;1.10;;
24451;SDS011;13350;50.984;5.822;2023-03-31T10:50:54;3.97;;;1.15;;
24451;SDS011;13350;50.984;5.822;2023-03-31T10:53:26;4.05;;;1.48;;
24451;SDS011;13350;50.984;5.822;2023-03-31T10:56:06;5.63;;;1.70;;
24451;SDS011;13350;50.984;5.822;2023-03-31T10:58:42;7.05;;;1.65;;
24451;SDS011;13350;50.984;5.822;2023-03-31T11:01:21;6.57;;;1.38;;
24451;SDS011;13350;50.984;5.822;2023-03-31T11:04:12;6.68;;;1.52;;
24451;SDS011;13350;50.984;5.822;2023-03-31T11:07:01;4.50;;;1.17;;
24451;SDS011;13350;50.984;5.822;2023-03-31T11:09:38;2.40;;;1.10;;
24451;SDS011;13350;50.984;5.822;2023-03-31T11:12:15;5.22;;;1.50;;
24451;SDS011;13350;50.984;5.822;2023-03-31T11:14:51;6.60;;;1.20;;
24451;SDS011;13350;50.984;5.822;2023-03-31T11:17:30;5.38;;;1.70;;
24451;SDS011;13350;50.984;5.822;2023-03-31T11:20:13;6.88;;;1.40;;
24451;SDS011;13350;50.984;5.822;2023-03-31T11:22:49;5.88;;;1.83;;
24451;SDS011;13350;50.984;5.822;2023-03-31T11:28:05;4.68;;;1.20;;
24451;SDS011;13350;50.984;5.822;2023-03-31T11:30:57;6.22;;;1.83;;
24451;SDS011;13350;50.984;5.822;2023-03-31T11:33:37;8.60;;;1.92;;
24451;SDS011;13350;50.984;5.822;2023-03-31T11:36:20;7.47;;;1.70;;
24451;SDS011;13350;50.984;5.822;2023-03-31T11:39:10;4.60;;;1.48;;
24451;SDS011;13350;50.984;5.822;2023-03-31T11:41:51;6.95;;;1.75;;
24451;SDS011;13350;50.984;5.822;2023-03-31T11:44:21;1.48;;;0.80;;
24451;SDS011;13350;50.984;5.822;2023-03-31T11:46:51;1.80;;;0.70;;
24451;SDS011;13350;50.984;5.822;2023-03-31T11:49:21;2.35;;;1.15;;
24451;SDS011;13350;50.984;5.822;2023-03-31T11:51:52;4.30;;;1.40;;
24451;SDS011;13350;50.984;5.822;2023-03-31T11:54:24;5.72;;;1.73;;
24451;SDS011;13350;50.984;5.822;2023-03-31T11:56:57;3.63;;;1.10;;
24451;SDS011;13350;50.984;5.822;2023-03-31T11:59:28;2.90;;;1.00;;
24451;SDS011;13350;50.984;5.822;2023-03-31T12:02:00;5.38;;;1.30;;
24451;SDS011;13350;50.984;5.822;2023-03-31T12:04:36;7.95;;;1.80;;
24451;SDS011;13350;50.984;5.822;2023-03-31T12:07:10;3.10;;;1.00;;
24451;SDS011;13350;50.984;5.822;2023-03-31T12:09:49;4.20;;;1.50;;
24451;SDS011;13350;50.984;5.822;2023-03-31T12:12:23;1.13;;;0.65;;
24451;SDS011;13350;50.984;5.822;2023-03-31T12:14:54;3.28;;;1.30;;
24451;SDS011;13350;50.984;5.822;2023-03-31T12:17:30;5.40;;;1.30;;
24451;SDS011;13350;50.984;5.822;2023-03-31T12:20:01;4.80;;;1.20;;
24451;SDS011;13350;50.984;5.822;2023-03-31T12:22:35;3.13;;;1.05;;
24451;SDS011;13350;50.984;5.822;2023-03-31T12:25:10;4.45;;;1.23;;
24451;SDS011;13350;50.984;5.822;2023-03-31T12:27:40;3.92;;;1.27;;
24451;SDS011;13350;50.984;5.822;2023-03-31T12:30:09;4.65;;;1.92;;
24451;SDS011;13350;50.984;5.822;2023-03-31T12:32:42;3.50;;;1.20;;
24451;SDS011;13350;50.984;5.822;2023-03-31T12:35:14;2.50;;;0.98;;
24451;SDS011;13350;50.984;5.822;2023-03-31T12:38:03;5.45;;;1.13;;
24451;SDS011;13350;50.984;5.822;2023-03-31T12:40:47;3.00;;;1.05;;
24451;SDS011;13350;50.984;5.822;2023-03-31T12:46:28;2.45;;;1.15;;
24451;SDS011;13350;50.984;5.822;2023-03-31T12:49:18;2.58;;;0.80;;
24451;SDS011;13350;50.984;5.822;2023-03-31T12:51:59;3.83;;;1.50;;
24451;SDS011;13350;50.984;5.822;2023-03-31T12:57:27;2.70;;;0.88;;
24451;SDS011;13350;50.984;5.822;2023-03-31T13:05:54;3.47;;;1.10;;
24451;SDS011;13350;50.984;5.822;2023-03-31T13:11:21;5.05;;;1.15;;
24451;SDS011;13350;50.984;5.822;2023-03-31T13:14:01;2.15;;;0.75;;
24451;SDS011;13350;50.984;5.822;2023-03-31T13:16:31;2.88;;;0.85;;
24451;SDS011;13350;50.984;5.822;2023-03-31T13:19:00;3.42;;;0.98;;
24451;SDS011;13350;50.984;5.822;2023-03-31T13:21:29;5.43;;;1.05;;
24451;SDS011;13350;50.984;5.822;2023-03-31T13:23:58;2.22;;;0.90;;
24451;SDS011;13350;50.984;5.822;2023-03-31T13:26:37;1.45;;;0.80;;
24451;SDS011;13350;50.984;5.822;2023-03-31T13:32:20;3.10;;;1.52;;
24451;SDS011;13350;50.984;5.822;2023-03-31T13:37:51;2.30;;;0.90;;
24451;SDS011;13350;50.984;5.822;2023-03-31T13:40:43;1.08;;;0.70;;
24451;SDS011;13350;50.984;5.822;2023-03-31T13:43:28;2.05;;;1.13;;
24451;SDS011;13350;50.984;5.822;2023-03-31T13:49:23;2.78;;;1.25;;
24451;SDS011;13350;50.984;5.822;2023-03-31T13:52:08;3.08;;;0.80;;
24451;SDS011;13350;50.984;5.822;2023-03-31T13:54:48;4.75;;;1.10;;
24451;SDS011;13350;50.984;5.822;2023-03-31T13:57:39;5.93;;;1.50;;
24451;SDS011;13350;50.984;5.822;2023-03-31T14:00:33;3.45;;;1.10;;
24451;SDS011;13350;50.984;5.822;2023-03-31T14:06:04;5.93;;;1.75;;
24451;SDS011;13350;50.984;5.822;2023-03-31T14:08:42;5.80;;;1.65;;
24451;SDS011;13350;50.984;5.822;2023-03-31T14:11:20;6.82;;;1.40;;
24451;SDS011;13350;50.984;5.822;2023-03-31T14:13:58;5.22;;;1.17;;
24451;SDS011;13350;50.984;5.822;2023-03-31T14:16:27;3.03;;;1.13;;
24451;SDS011;13350;50.984;5.822;2023-03-31T14:19:00;6.20;;;1.20;;
24451;SDS011;13350;50.984;5.822;2023-03-31T14:21:45;4.32;;;0.93;;
24451;SDS011;13350;50.984;5.822;2023-03-31T14:24:20;7.43;;;1.08;;
24451;SDS011;13350;50.984;5.822;2023-03-31T14:27:00;3.35;;;0.95;;
24451;SDS011;13350;50.984;5.822;2023-03-31T14:29:34;3.42;;;1.00;;
24451;SDS011;13350;50.984;5.822;2023-03-31T14:32:12;3.67;;;0.80;;
24451;SDS011;13350;50.984;5.822;2023-03-31T14:34:57;3.92;;;0.80;;
24451;SDS011;13350;50.984;5.822;2023-03-31T14:37:33;5.78;;;1.00;;
24451;SDS011;13350;50.984;5.822;2023-03-31T14:40:01;2.75;;;0.88;;
24451;SDS011;13350;50.984;5.822;2023-03-31T14:42:34;2.92;;;0.73;;
24451;SDS011;13350;50.984;5.822;2023-03-31T14:45:05;3.65;;;1.10;;
24451;SDS011;13350;50.984;5.822;2023-03-31T14:47:41;1.73;;;0.70;;
24451;SDS011;13350;50.984;5.822;2023-03-31T14:50:18;1.65;;;0.70;;
24451;SDS011;13350;50.984;5.822;2023-03-31T14:52:46;1.02;;;0.60;;
24451;SDS011;13350;50.984;5.822;2023-03-31T14:55:14;4.95;;;0.80;;
24451;SDS011;13350;50.984;5.822;2023-03-31T14:57:47;2.88;;;0.90;;
24451;SDS011;13350;50.984;5.822;2023-03-31T15:00:19;2.78;;;0.90;;
24451;SDS011;13350;50.984;5.822;2023-03-31T15:02:52;2.28;;;0.60;;
24451;SDS011;13350;50.984;5.822;2023-03-31T15:05:22;2.30;;;0.68;;
24451;SDS011;13350;50.984;5.822;2023-03-31T15:07:55;1.70;;;0.70;;
24451;SDS011;13350;50.984;5.822;2023-03-31T15:10:23;1.95;;;0.60;;
24451;SDS011;13350;50.984;5.822;2023-03-31T15:12:57;1.83;;;0.40;;
24451;SDS011;13350;50.984;5.822;2023-03-31T15:15:25;2.08;;;0.70;;
24451;SDS011;13350;50.984;5.822;2023-03-31T15:17:53;1.48;;;0.73;;
24451;SDS011;13350;50.984;5.822;2023-03-31T15:20:24;1.75;;;0.50;;
24451;SDS011;13350;50.984;5.822;2023-03-31T15:22:54;1.65;;;0.68;;
24451;SDS011;13350;50.984;5.822;2023-03-31T15:25:23;1.13;;;0.60;;
24451;SDS011;13350;50.984;5.822;2023-03-31T15:27:55;1.02;;;0.77;;
24451;SDS011;13350;50.984;5.822;2023-03-31T15:30:27;0.60;;;0.47;;
24451;SDS011;13350;50.984;5.822;2023-03-31T15:32:55;1.35;;;0.77;;
24451;SDS011;13350;50.984;5.822;2023-03-31T15:35:24;0.75;;;0.47;;
24451;SDS011;13350;50.984;5.822;2023-03-31T15:37:56;1.02;;;0.50;;
24451;SDS011;13350;50.984;5.822;2023-03-31T15:40:25;1.30;;;0.52;;
24451;SDS011;13350;50.984;5.822;2023-03-31T15:42:54;1.27;;;0.70;;
24451;SDS011;13350;50.984;5.822;2023-03-31T15:45:36;1.77;;;0.70;;
24451;SDS011;13350;50.984;5.822;2023-03-31T15:48:13;1.30;;;0.55;;
24451;SDS011;13350;50.984;5.822;2023-03-31T15:50:47;2.10;;;0.90;;
24451;SDS011;13350;50.984;5.822;2023-03-31T15:53:26;2.75;;;0.70;;
24451;SDS011;13350;50.984;5.822;2023-03-31T15:55:57;0.93;;;0.52;;
24451;SDS011;13350;50.984;5.822;2023-03-31T15:58:45;1.35;;;0.50;;